Welcome to our Virtual Airline
Sign-in:

Flight MFC37161

  • Submitted By: John Dean
  • Departure Airport: Port Williams SPB (KPR)
  • Arrival Airport: Kulik Lake (LKK)
  • Aircraft: CESSNA 185 (N015MM)
  • Flight Time: 01.04.43
  • Date Submitted: 2019/10/03
  • Route: STOP-OVER AT OPTIONAL: (MCNEIL RIVER CAMP (MCN) (WATER) (THIS SPOT IS UN-MARKED BUT IT IS IN MCNEIL COVE)
  • Status: Accepted
Flight Details
Gross Revenue:
(3 load / $ 95.00 per unit
$ 285.00
Fuel Cost:
(38.1018 fuel used @ 5.1 / unit)
$ 194.32

Additional Log Information:

View Log

[22:25] ----- Flight Opened -----
[22:25] Cigar Box - 1.1.4.0
[22:25] FS: FSX
[22:25] FSUIPC: v4.973
[22:25] Flight Number: MFC37161
[22:25] FS Aircraft: C185F AMPHIBIAN Alaska Adventures
[22:25] FS Model: C185
[22:25] FS Type: Cessna
[22:25] Departure: KPR
[22:25] Arrival: LKK
[22:25] Flight Level: 6500
[22:25] Flight Type: H
[22:25] Passengers: 3
[22:25] FOB: 383 lbs
[22:25] Gate: n/a
[22:25] Crash Detection: Disabled
[22:25] Crash Detection Aircraft: Disabled
[22:25] Engines: 1 Piston
[22:25] NOTE: Boarding has started
[22:25] FS: Paused
[22:25] Parking Brake: Engaged
[22:25] Landing Gear: Retracted
[22:25] Engine 1: Started
[22:25] Flaps: Position 1
[22:25] Light Data: Navigation ON
[22:25] Light Data: Beacon ON
[22:25] Light Data: Landing lights ON
[22:25] Light Data: Taxi lights ON
[22:25] Light Data: Strobe lights ON
[22:25] Light Data: Instrument lights ON
[22:25] Light Data: Recognition lights ON
[22:25] Light Data: Wing lights ON
[22:25] Light Data: Logo lights ON
[22:25] Light Data: Cabin lights ON
[22:25] Main Door Closed
[22:25] COM1: 122.90
[22:25] COM2: 127.80
[22:25] Transponder: 1200
[22:25] NAV1: 113.70
[22:25] NAV2: 110.60
[22:25] ADF1: 284.0
[22:25] ADF2: 240.0
[22:25] Navigation Mode: GPS
[22:25] Navigation Mode: GPS
[22:25] FS: Unpaused
[22:25] Parking Brake: Released
[22:26] NOTE: Taxi started
[22:26] NOTE: ----- TAKE OFF -----
[22:26] GS: 64 knots
[22:26] TAS: 65 knots
[22:26] IAS: 65 knots
[22:26] VS: 53 fpm
[22:26] FOB: 383 lbs
[22:26] Heading: 288°
[22:26] Pitch: 6°
[22:26] Bank: 0°
[22:26] Aircraft Weight: 2488.45 lbs
[22:26] Nearest Airport: KPR
[22:26] Distance: 0.88 miles
[22:26] Runway: ???
[22:26] Ground Surface: Water
[22:26] Ground Condition: Normal
[22:26] NOTE: Weather Report
[22:26] Wind Heading: 341°
[22:26] Wind Speed: 0 knots
[22:26] OAT: 14° C
[22:26] TAT: 15° C
[22:26] Precipitation: None
[22:26] Dew Point: 4° C
[22:26] Visibility: 62 miles
[22:26] METAR: KPRX 030256Z AUTO 00000KT 10SM CLR 26/21 A2999 RMK AO2 SLP160 T02610206 53016 KPRC 030253Z 20004KT 10SM CLR 14/02 A3011 RMK AO2 SLP146 T01440022 53008 KPRO 030315Z AUTO 29009G16KT 10SM BKN010 BKN013 OVC042 13/12 A2999 RMK AO2 T01270120 KPRS 030315Z AUTO 02012G17KT 10SM -TSRA SCT070 OVC090 24/20 A2999 RMK AO2 LTG DSNT ALQS T02370195 KPRG 030255Z AUTO 18003KT 10SM CLR 23/21 A2992 RMK AO2 T02340208 KPRN 030256Z AUTO 00000KT 10SM CLR 25/21 A2999 RMK AO2 SLP149 T02500206 51014 KPRB 030253Z AUTO 00000KT 10SM CLR 19/00 A2994 RMK AO2 SLP137 T01890000 53007
[22:26] NOTE: Climb started
[22:26] Autopilot: Engaged
[22:26] AGL: 29 ft
[22:26] AMSL: 29 ft
[22:26] Flaps: Position 0
[22:26] GS: 79 knots
[22:26] TAS: 81 knots
[22:26] IAS: 81 knots
[22:26] VS: 706 fpm
[22:26] View Mode: Spot Plane
[22:36] FS: Paused
[22:45] FS: Unpaused
[22:45] Recovery: Flight Saved
[23:01] Recovery: Flight Saved
[23:06] Flaps: Position 1
[23:06] GS: 101 knots
[23:06] TAS: 101 knots
[23:06] IAS: 101 knots
[23:06] VS: -73 fpm
[23:07] Flaps: Position 2
[23:07] GS: 89 knots
[23:07] TAS: 90 knots
[23:07] IAS: 90 knots
[23:07] VS: 17 fpm
[23:07] Autopilot: Disengaged
[23:07] AGL: 390 ft
[23:07] AMSL: 390 ft
[23:09] Flaps: Position 3
[23:09] GS: 64 knots
[23:09] TAS: 65 knots
[23:09] IAS: 65 knots
[23:09] VS: -290 fpm
[23:09] NOTE: ----- LANDED -----
[23:09] Landing Rate: -144.56 fpm
[23:09] GS: 48 knots
[23:09] TAS: 49 knots
[23:09] IAS: 49 knots
[23:09] VS: -142 fpm
[23:09] FOB: 330 lbs
[23:09] Heading: 205°
[23:09] Pitch: 6°
[23:09] Bank: 0°
[23:09] Aircraft Weight: 2435.38 lbs
[23:09] Nearest Airport: MCN
[23:09] Distance: 0.58 miles
[23:09] Runway: ???
[23:09] Ground Surface: Water
[23:09] Ground Condition: Normal
[23:09] NOTE: Weather Report
[23:09] Wind Heading: 341°
[23:09] Wind Speed: 0 knots
[23:09] OAT: 14° C
[23:09] TAT: 15° C
[23:09] Precipitation: None
[23:09] Dew Point: 4° C
[23:09] Visibility: 62 miles
[23:09] METAR: LKKB 030300Z 18008KT CAVOK 05/04 Q1013 LKKV 030300Z 27012KT 220V290 9999 -RA BKN006 BKN019 04/03 Q1013 LKKU 022000Z 02012KT 8000 -RA FEW009 SCT020 BKN048 11/09 Q1006
[23:09] View Mode: Spot Plane
[23:09] Flaps: Position 0
[23:10] NOTE: Taxi started
[23:10] Flaps: Position 1
[23:10] Flaps: Position 2
[23:10] View Mode: Spot Plane
[23:10] Landing Gear: Extended
[23:10] GS: 75 knots
[23:10] TAS: 78 knots
[23:10] IAS: 77 knots
[23:10] VS: 1180 fpm
[23:10] AGL: 301 ft
[23:10] AMSL: 301 ft
[23:11] Landing Gear: Retracted
[23:11] GS: 75 knots
[23:11] TAS: 77 knots
[23:11] IAS: 76 knots
[23:11] VS: 61 fpm
[23:11] AGL: 384 ft
[23:11] AMSL: 567 ft
[23:12] Flaps: Position 3
[23:12] GS: 71 knots
[23:12] TAS: 72 knots
[23:12] IAS: 71 knots
[23:12] VS: -580 fpm
[23:13] NOTE: ----- LANDED -----
[23:13] Landing Rate: -168.40 fpm
[23:13] GS: 52 knots
[23:13] TAS: 52 knots
[23:13] IAS: 52 knots
[23:13] VS: -166 fpm
[23:13] FOB: 327 lbs
[23:13] Heading: 4°
[23:13] Pitch: 4°
[23:13] Bank: 0°
[23:13] Aircraft Weight: 2432.75 lbs
[23:13] Nearest Airport: MCN
[23:13] Distance: 0.44 miles
[23:13] Runway: ???
[23:13] Ground Surface: Water
[23:13] Ground Condition: Normal
[23:13] NOTE: Weather Report
[23:13] Wind Heading: 341°
[23:13] Wind Speed: 0 knots
[23:13] OAT: 14° C
[23:13] TAT: 15° C
[23:13] Precipitation: None
[23:13] Dew Point: 4° C
[23:13] Visibility: 62 miles
[23:13] METAR: LKKB 030300Z 18008KT CAVOK 05/04 Q1013 LKKV 030300Z 27012KT 220V290 9999 -RA BKN006 BKN019 04/03 Q1013 LKKU 022000Z 02012KT 8000 -RA FEW009 SCT020 BKN048 11/09 Q1006
[23:13] View Mode: Spot Plane
[23:14] Flaps: Position 0
[23:15] NOTE: Arrived
[23:15] Parking Brake: Engaged
[23:15] Main Door Open
[23:17] Main Door Closed
[23:19] Flaps: Position 1
[23:19] Parking Brake: Released
[23:21] Autopilot: Engaged
[23:21] AGL: 22 ft
[23:21] AMSL: 22 ft
[23:21] Flaps: Position 0
[23:21] GS: 79 knots
[23:21] TAS: 80 knots
[23:21] IAS: 80 knots
[23:21] VS: 605 fpm
[23:22] View Mode: Spot Plane
[23:37] Landing Gear: Extended
[23:37] GS: 108 knots
[23:37] TAS: 109 knots
[23:37] IAS: 107 knots
[23:37] VS: -630 fpm
[23:37] AGL: 515 ft
[23:37] AMSL: 1171 ft
[23:37] Flaps: Position 1
[23:37] GS: 106 knots
[23:37] TAS: 108 knots
[23:37] IAS: 107 knots
[23:37] VS: -606 fpm
[23:37] Flaps: Position 2
[23:37] GS: 89 knots
[23:37] TAS: 90 knots
[23:37] IAS: 89 knots
[23:37] VS: -192 fpm
[23:38] Autopilot: Disengaged
[23:38] AGL: 321 ft
[23:38] AMSL: 977 ft
[23:39] Flaps: Position 3
[23:39] GS: 68 knots
[23:39] TAS: 68 knots
[23:39] IAS: 68 knots
[23:39] VS: -267 fpm
[23:39] NOTE: ----- LANDED -----
[23:39] Landing Rate: -176.09 fpm
[23:39] GS: 50 knots
[23:39] TAS: 52 knots
[23:39] IAS: 51 knots
[23:39] VS: -176 fpm
[23:39] FOB: 299 lbs
[23:39] Heading: 241°
[23:39] Pitch: 2°
[23:39] Bank: 0°
[23:39] Aircraft Weight: 2404.85 lbs
[23:39] Nearest Airport: PAKL
[23:39] Distance: 0.27 miles
[23:39] Runway: 24 - LKK
[23:39] Ground Surface: Gravel
[23:39] Ground Condition: Normal
[23:39] NOTE: Weather Report
[23:39] Wind Heading: 342°
[23:39] Wind Speed: 0 knots
[23:39] OAT: 13° C
[23:39] TAT: 13° C
[23:39] Precipitation: None
[23:39] Dew Point: 3° C
[23:39] Visibility: 62 miles
[23:39] METAR: LKKB 030300Z 18008KT CAVOK 05/04 Q1013 LKKV 030300Z 27012KT 220V290 9999 -RA BKN006 BKN019 04/03 Q1013 LKKU 022000Z 02012KT 8000 -RA FEW009 SCT020 BKN048 11/09 Q1006
[23:39] View Mode: Spot Plane
[23:39] Flaps: Position 0
[23:39] GS: 48 knots
[23:39] TAS: 49 knots
[23:39] IAS: 48 knots
[23:39] VS: -13 fpm
[23:41] Parking Brake: Engaged
[23:41] Engine 1: Stopped
[23:41] Main Door Open
[23:41] Light Data: Navigation OFF
[23:41] Light Data: Beacon OFF
[23:41] Light Data: Landing lights OFF
[23:41] Light Data: Taxi lights OFF
[23:41] Light Data: Strobe lights OFF
[23:41] Light Data: Instrument lights OFF
[23:41] Light Data: Recognition lights OFF
[23:41] Light Data: Wing lights OFF
[23:41] Light Data: Logo lights OFF
[23:41] Light Data: Cabin lights OFF
[23:42] FS: Paused
[23:43] Gate: 3 - LKK
[23:43] NOTE: Flight Completed
[23:43] FS Aircraft: C185F AMPHIBIAN Alaska Adventures
[23:43] FS Model: C185
[23:43] FS Type: Cessna
[23:43] FOB: 299 lbs
[23:43] Fuel Used: 84 lbs
[23:43] Flight Time: 01:04:43
[23:43] Flight Time (Dawn): 00:00:00
[23:43] Flight Time (Day): 01:04:43
[23:43] Flight Time (Dusk): 00:00:00
[23:43] Flight Time (Night): 00:00:00
[23:43] Total Landings: 3
[23:43] MaxSim Rate: 1x
[23:43] Cigar Box - 1.1.4.0
[23:43] ----- Flight Closed -----

Route Map